.
WxDataArchive / Data Records for 2011-07-21
2011-07-20 July 2011 2011-07-22

Data Records for Thursday, 21 July 2011

Time	Temp	Chill	HIndex	Humid	Dewpt	 Wind 	HiWind	WindDir	Rain 	Barom 
-----	----	-----	------	-----	-----	------	------	-------	-----	----- 
00:00	87.6	87.6	98.6	69	76.1	0	2	270	0.00	29.784 
00:05	87.4	87.4	98.1	69	75.9	1	3	270	0.00	29.784 
00:10	87.2	87.2	97.6	69	75.8	0	3	270	0.00	29.784 
00:15	87.0	87.0	97.1	69	75.6	1	3	270	0.00	29.782 
00:20	87.0	87.0	97.1	69	75.6	1	3	270	0.00	29.782 
00:25	86.7	86.7	96.3	69	75.3	0	2	270	0.00	29.782 
00:30	86.5	86.5	95.8	69	75.1	1	3	270	0.00	29.782 
00:35	86.3	86.3	95.4	69	74.9	1	4	270	0.00	29.782 
00:40	86.1	86.1	94.9	69	74.7	0	3	270	0.00	29.782 
00:45	85.9	85.9	94.4	69	74.5	1	3	270	0.00	29.777 
00:50	85.9	85.9	94.8	70	74.9	1	2	270	0.00	29.777 
00:55	85.7	85.7	94.8	71	75.2	1	4	270	0.00	29.777 
01:00	85.7	85.7	95.2	72	75.6	1	5	270	0.00	29.775 
01:05	85.5	85.5	95.1	73	75.8	1	3	270	0.00	29.775 
01:10	85.3	85.3	94.6	73	75.6	0	2	270	0.00	29.775 
01:15	85.1	85.1	94.5	74	75.9	0	3	270	0.00	29.781 
01:20	84.9	84.9	94.4	75	76.1	0	2	270	0.00	29.781 
01:25	84.7	84.7	93.9	75	75.9	1	3	270	0.00	29.781 
01:30	84.7	84.7	94.3	76	76.3	1	4	292	0.00	29.776 
01:35	84.5	84.5	93.8	76	76.1	1	4	270	0.00	29.776 
01:40	84.5	84.5	93.8	76	76.1	1	3	270	0.00	29.776 
01:45	84.3	84.3	93.3	76	75.9	0	4	270	0.00	29.773 
01:50	84.3	84.3	93.3	76	75.9	0	2	248	0.00	29.773 
01:55	84.1	84.1	92.8	76	75.7	1	3	248	0.00	29.773 
02:00	84.1	84.1	92.8	76	75.7	0	2	248	0.00	29.771 
02:05	84.0	84.0	92.5	76	75.6	0	1	248	0.00	29.771 
02:10	84.0	84.0	92.5	76	75.6	1	4	248	0.00	29.771 
02:15	84.0	84.0	92.5	76	75.6	1	3	270	0.00	29.768 
02:20	83.8	83.8	92.0	76	75.4	0	1	270	0.00	29.768 
02:25	83.8	83.8	92.0	76	75.4	0	2	270	0.00	29.768 
02:30	83.6	83.6	91.9	77	75.6	0	2	270	0.00	29.764 
02:35	83.4	83.4	91.4	77	75.4	0	1	270	0.00	29.764 
02:40	83.4	83.4	91.4	77	75.4	0	2	270	0.00	29.764 
02:45	83.2	83.2	90.9	77	75.2	1	3	270	0.00	29.768 
02:50	83.2	83.2	90.9	77	75.2	1	2	270	0.00	29.768 
02:55	83.0	83.0	90.4	77	75.0	0	1	270	0.00	29.768 
03:00	83.0	83.0	90.7	78	75.4	0	2	270	0.00	29.767 
03:05	82.8	82.8	90.2	78	75.2	0	1	270	0.00	29.767 
03:10	82.6	82.6	89.7	78	75.0	0	1	270	0.00	29.767 
03:15	82.6	82.6	89.7	78	75.0	0	1	270	0.00	29.766 
03:20	82.4	82.4	89.5	79	75.2	0	1	270	0.00	29.766 
03:25	82.2	82.2	89.0	79	75.0	0	2	270	0.00	29.766 
03:30	82.2	82.2	89.0	79	75.0	0	3	270	0.00	29.765 
03:35	82.2	82.2	89.0	79	75.0	1	2	270	0.00	29.765 
03:40	82.0	82.0	88.5	79	74.8	0	1	270	0.00	29.765 
03:45	81.8	81.8	88.3	80	75.0	0	2	270	0.00	29.765 
03:50	81.8	81.8	88.3	80	75.0	0	1	270	0.00	29.765 
03:55	81.8	81.8	88.3	80	75.0	0	3	270	0.00	29.765 
04:00	81.6	81.6	87.8	80	74.8	0	3	270	0.00	29.773 
04:05	81.6	81.6	87.8	80	74.8	0	1	270	0.00	29.773 
04:10	81.6	81.6	87.8	80	74.8	0	2	270	0.00	29.773 
04:15	81.4	81.4	87.4	80	74.6	0	2	270	0.00	29.771 
04:20	81.4	81.4	87.4	80	74.6	1	3	270	0.00	29.771 
04:25	81.2	81.2	86.9	80	74.4	0	1	270	0.00	29.771 
04:30	81.2	81.2	86.9	80	74.4	1	2	270	0.00	29.771 
04:35	81.2	81.2	86.9	80	74.4	0	1	270	0.00	29.771 
04:40	81.2	81.2	87.1	81	74.8	0	2	270	0.00	29.771 
04:45	81.1	81.1	86.9	81	74.7	0	1	270	0.00	29.773 
04:50	81.1	81.1	86.9	81	74.7	0	1	270	0.00	29.773 
04:55	80.9	80.9	86.4	81	74.5	1	3	270	0.00	29.773 
05:00	80.9	80.9	86.4	81	74.5	0	2	270	0.00	29.771 
05:05	80.7	80.7	85.9	81	74.3	0	3	270	0.00	29.771 
05:10	80.7	80.7	85.9	81	74.3	0	2	270	0.00	29.771 
05:15	80.7	80.7	85.9	81	74.3	0	2	270	0.00	29.777 
05:20	80.5	80.5	85.5	81	74.1	0	2	270	0.00	29.777 
05:25	80.5	80.5	85.5	81	74.1	0	1	270	0.00	29.777 
05:30	80.3	80.3	85.2	82	74.3	0	1	270	0.00	29.782 
05:35	80.3	80.3	85.2	82	74.3	0	2	270	0.00	29.782 
05:40	80.3	80.3	85.2	82	74.3	0	3	270	0.00	29.782 
05:45	80.1	80.1	84.7	82	74.1	0	1	270	0.00	29.780 
05:50	80.1	80.1	84.7	82	74.1	0	2	270	0.00	29.780 
05:55	79.9	79.9	84.3	82	73.9	0	0	---	0.00	29.780 
06:00	79.9	79.9	84.4	83	74.3	0	2	270	0.00	29.778 
06:05	79.8	79.8	84.2	83	74.2	0	2	270	0.00	29.778 
06:10	79.8	79.8	84.2	83	74.2	0	1	270	0.00	29.778 
06:15	79.6	79.6	83.7	83	74.0	0	2	270	0.00	29.780 
06:20	79.6	79.6	83.7	83	74.0	0	1	270	0.00	29.780 
06:25	79.6	79.6	83.7	83	74.0	0	1	270	0.00	29.780 
06:30	79.4	79.4	83.4	84	74.1	0	2	270	0.00	29.786 
06:35	79.4	79.4	83.4	84	74.1	0	1	270	0.00	29.786 
06:40	79.4	79.4	83.4	84	74.1	0	1	270	0.00	29.786 
06:45	79.2	79.2	82.9	84	73.9	0	1	270	0.00	29.791 
06:50	79.4	79.4	83.4	84	74.1	0	2	270	0.00	29.791 
06:55	79.4	79.4	83.4	84	74.1	0	1	270	0.00	29.791 
07:00	79.4	79.4	83.4	84	74.1	0	2	270	0.00	29.790 
07:05	79.4	79.4	83.4	84	74.1	0	2	270	0.00	29.790 
07:10	79.4	79.4	83.4	84	74.1	0	2	270	0.00	29.790 
07:15	79.6	79.6	83.8	84	74.3	0	1	270	0.00	29.796 
07:20	79.6	79.6	83.8	84	74.3	0	2	270	0.00	29.796 
07:25	79.8	79.8	84.3	84	74.5	0	2	270	0.00	29.796 
07:30	79.9	79.9	84.5	84	74.6	0	2	270	0.00	29.798 
07:35	80.3	80.3	85.3	83	74.6	0	2	270	0.00	29.798 
07:40	80.5	80.5	85.6	82	74.5	1	3	270	0.00	29.798 
07:45	80.7	80.7	86.1	82	74.7	0	2	270	0.00	29.798 
07:50	81.1	81.1	86.9	81	74.7	1	2	270	0.00	29.798 
07:55	81.2	81.2	87.1	81	74.8	1	3	270	0.00	29.798 
08:00	81.6	81.6	87.8	80	74.8	1	2	270	0.00	29.798 
08:05	81.8	81.8	88.1	79	74.6	1	4	270	0.00	29.798 
08:10	82.2	82.2	88.8	78	74.6	1	3	270	0.00	29.798 
08:15	82.6	82.6	89.4	77	74.6	1	3	270	0.00	29.800 
08:20	82.8	82.8	89.9	77	74.8	2	4	270	0.00	29.800 
08:25	83.2	83.2	90.3	75	74.4	2	5	270	0.00	29.800 
08:30	83.6	83.6	91.2	75	74.8	1	3	270	0.00	29.800 
08:35	83.8	83.8	91.3	74	74.6	2	4	270	0.00	29.800 
08:40	84.0	84.0	91.5	73	74.4	3	6	270	0.00	29.800 
08:45	84.1	84.1	91.7	73	74.5	2	4	270	0.00	29.801 
08:50	84.5	84.5	92.3	72	74.5	2	5	270	0.00	29.801 
08:55	84.7	84.7	92.4	71	74.2	2	4	270	0.00	29.801 
09:00	85.3	85.3	93.8	71	74.8	1	3	270	0.00	29.799 
09:05	85.5	85.5	93.9	70	74.6	3	5	270	0.00	29.799 
09:10	85.7	85.7	93.9	69	74.3	2	6	270	0.00	29.799 
09:15	85.9	85.9	94.4	69	74.5	2	5	270	0.00	29.799 
09:20	86.3	86.3	95.4	69	74.9	2	4	270	0.00	29.799 
09:25	86.7	86.7	95.4	67	74.4	2	5	270	0.00	29.799 
09:30	87.0	87.0	96.1	67	74.7	3	5	270	0.00	29.799 
09:35	87.2	87.2	96.6	67	74.9	2	4	270	0.00	29.799 
09:40	87.6	87.6	97.1	66	74.8	2	4	270	0.00	29.799 
09:45	88.0	88.0	97.1	64	74.3	2	5	248	0.00	29.798 
09:50	88.2	88.2	98.0	65	74.9	2	4	270	0.00	29.798 
09:55	88.8	88.8	97.9	62	74.1	2	4	270	0.00	29.798 
10:00	89.0	89.0	97.9	61	73.8	3	6	270	0.00	29.797 
10:05	89.0	89.0	97.4	60	73.3	3	6	270	0.00	29.797 
10:10	89.5	89.5	99.0	61	74.2	2	5	248	0.00	29.797 
10:15	89.7	89.7	99.0	60	73.9	2	6	270	0.00	29.796 
10:20	89.9	89.9	98.3	58	73.1	3	5	270	0.00	29.796 
10:25	90.1	90.1	98.8	58	73.3	3	5	292	0.00	29.796 
10:30	90.1	90.1	98.8	58	73.3	3	7	270	0.00	29.790 
10:35	90.5	90.5	99.7	58	73.7	2	4	248	0.00	29.790 
10:40	90.7	90.7	99.6	57	73.3	3	6	270	0.00	29.790 
10:45	91.0	91.0	100.3	57	73.6	3	5	270	0.00	29.791 
10:50	91.2	91.2	100.2	56	73.3	2	5	270	0.00	29.791 
10:55	91.4	91.4	100.1	55	72.9	3	6	270	0.00	29.791 
11:00	91.6	91.6	100.5	55	73.1	3	6	270	0.00	29.787 
11:05	91.8	91.8	101.0	55	73.3	2	6	270	0.00	29.787 
11:10	92.1	92.1	101.1	54	73.0	3	6	270	0.00	29.787 
11:15	92.3	92.3	101.5	54	73.2	2	4	292	0.00	29.789 
11:20	92.5	92.5	102.0	54	73.4	2	5	270	0.00	29.789 
11:25	92.7	92.7	101.8	53	73.0	3	6	270	0.00	29.789 
11:30	93.2	93.2	102.4	52	72.9	2	4	270	0.00	29.790 
11:35	93.2	93.2	102.4	52	72.9	3	6	270	0.00	29.790 
11:40	93.4	93.4	102.8	52	73.1	2	6	292	0.00	29.790 
11:45	93.6	93.6	102.6	51	72.7	3	6	270	0.00	29.787 
11:50	93.6	93.6	102.6	51	72.7	3	6	270	0.00	29.787 
11:55	94.0	94.0	102.9	50	72.5	2	4	270	0.00	29.787 
12:00	94.5	94.5	104.0	50	72.9	2	6	270	0.00	29.786 
12:05	94.7	94.7	103.2	48	71.9	3	6	270	0.00	29.786 
12:10	95.1	95.1	104.1	48	72.3	2	5	270	0.00	29.786 
12:15	95.1	95.1	103.4	47	71.6	2	5	270	0.00	29.785 
12:20	95.1	95.1	103.4	47	71.6	3	8	270	0.00	29.785 
12:25	95.1	95.1	104.1	48	72.3	3	9	292	0.00	29.785 
12:30	95.1	95.1	102.7	46	71.0	4	7	270	0.00	29.783 
12:35	95.1	95.1	102.7	46	71.0	4	10	270	0.00	29.783 
12:40	95.6	95.6	103.8	46	71.5	2	5	270	0.00	29.783 
12:45	96.1	96.1	105.0	46	71.9	3	10	270	0.00	29.781 
12:50	96.6	96.6	106.1	46	72.4	2	4	248	0.00	29.781 
12:55	96.8	96.8	105.1	44	71.2	3	9	270	0.00	29.781 
13:00	96.8	96.8	105.8	45	71.9	3	5	292	0.00	29.781 
13:05	96.8	96.8	104.4	43	70.6	3	6	292	0.00	29.781 
13:10	96.8	96.8	105.1	44	71.2	4	6	270	0.00	29.781 
13:15	96.8	96.8	104.4	43	70.6	3	7	270	0.00	29.783 
13:20	97.3	97.3	105.5	43	71.0	3	6	270	0.00	29.783 
13:25	97.3	97.3	105.5	43	71.0	3	6	270	0.00	29.783 
13:30	97.5	97.5	106.0	43	71.2	3	5	248	0.00	29.782 
13:35	97.8	97.8	105.2	41	70.0	4	9	270	0.00	29.782 
13:40	97.8	97.8	105.9	42	70.8	3	6	270	0.00	29.782 
13:45	98.0	98.0	105.6	41	70.2	4	8	270	0.00	29.780 
13:50	97.8	97.8	105.2	41	70.0	4	9	292	0.00	29.780 
13:55	98.0	98.0	107.1	43	71.6	2	5	292	0.00	29.780 
14:00	98.0	98.0	104.9	40	69.5	3	6	292	0.00	29.783 
14:05	97.8	97.8	105.2	41	70.0	4	9	292	0.00	29.783 
14:10	97.8	97.8	105.2	41	70.0	3	6	270	0.00	29.783 
14:15	98.5	98.5	106.7	41	70.7	3	7	270	0.00	29.782 
14:20	98.7	98.7	105.7	39	69.4	4	6	270	0.00	29.782 
14:25	98.5	98.5	106.0	40	69.9	3	9	292	0.00	29.782 
14:30	98.5	98.5	105.3	39	69.2	3	6	270	0.00	29.780 
14:35	98.0	98.0	105.6	41	70.2	4	6	270	0.00	29.780 
14:40	98.7	98.7	107.1	41	70.8	2	7	270	0.00	29.780 
14:45	99.4	99.4	107.2	39	70.0	3	5	270	0.00	29.778 
14:50	99.7	99.7	105.6	36	67.9	4	7	270	0.00	29.778 
14:55	99.2	99.2	106.7	39	69.8	3	6	270	0.00	29.778 
15:00	99.2	99.2	106.7	39	69.8	2	5	270	0.00	29.777 
15:05	99.0	99.0	106.3	39	69.6	2	6	270	0.00	29.777 
15:10	99.2	99.2	105.3	37	68.3	4	7	270	0.00	29.777 
15:15	99.2	99.2	106.0	38	69.1	3	7	292	0.00	29.777 
15:20	99.2	99.2	106.0	38	69.1	4	11	292	0.00	29.777 
15:25	98.7	98.7	106.4	40	70.1	3	6	270	0.00	29.777 
15:30	99.4	99.4	105.7	37	68.5	4	7	270	0.00	29.776 
15:35	99.7	99.7	107.1	38	69.5	3	5	270	0.00	29.776 
15:40	100.2	100.2	107.4	37	69.2	2	6	292	0.00	29.776 
15:45	99.7	99.7	107.8	39	70.3	3	6	270	0.00	29.772 
15:50	100.2	100.2	107.4	37	69.2	2	7	270	0.00	29.772 
15:55	100.4	100.4	108.6	38	70.1	2	4	270	0.00	29.772 
16:00	100.7	100.7	110.0	39	71.1	2	6	270	0.00	29.766 
16:05	100.7	100.7	106.9	35	68.0	4	10	270	0.00	29.766 
16:10	100.2	100.2	105.9	35	67.5	4	7	270	0.00	29.766 
16:15	100.2	100.2	106.6	36	68.4	3	7	270	0.00	29.765 
16:20	100.4	100.4	106.3	35	67.7	3	7	270	0.00	29.765 
16:25	100.4	100.4	107.0	36	68.5	3	6	270	0.00	29.765 
16:30	99.9	99.9	106.0	36	68.1	3	6	270	0.00	29.762 
16:35	99.9	99.9	106.0	36	68.1	4	7	270	0.00	29.762 
16:40	99.9	99.9	106.7	37	68.9	4	6	315	0.00	29.762 
16:45	99.4	99.4	105.0	36	67.7	2	6	270	0.00	29.766 
16:50	99.4	99.4	105.0	36	67.7	3	6	270	0.00	29.766 
16:55	98.7	98.7	105.0	38	68.6	2	4	270	0.00	29.766 
17:00	99.0	99.0	105.6	38	68.9	3	7	270	0.00	29.765 
17:05	99.0	99.0	105.6	38	68.9	3	6	270	0.00	29.765 
17:10	99.4	99.4	105.7	37	68.5	2	4	270	0.00	29.765 
17:15	99.9	99.9	106.7	37	68.9	2	4	270	0.00	29.763 
17:20	100.2	100.2	107.4	37	69.2	3	6	270	0.00	29.763 
17:25	99.9	99.9	106.7	37	68.9	3	7	270	0.00	29.763 
17:30	99.9	99.9	106.7	37	68.9	4	7	270	0.00	29.759 
17:35	99.9	99.9	106.7	37	68.9	3	5	270	0.00	29.759 
17:40	99.9	99.9	106.7	37	68.9	2	5	315	0.00	29.759 
17:45	99.9	99.9	106.7	37	68.9	3	6	270	0.00	29.759 
17:50	99.9	99.9	105.3	35	67.3	3	7	270	0.00	29.759 
17:55	99.7	99.7	106.3	37	68.7	2	5	270	0.00	29.759 
18:00	99.7	99.7	106.3	37	68.7	2	6	270	0.00	29.763 
18:05	99.7	99.7	105.6	36	67.9	3	6	270	0.00	29.763 
18:10	99.7	99.7	106.3	37	68.7	3	6	270	0.00	29.763 
18:15	99.2	99.2	106.0	38	69.1	3	7	292	0.00	29.767 
18:20	99.2	99.2	106.0	38	69.1	2	4	292	0.00	29.767 
18:25	99.2	99.2	105.3	37	68.3	4	7	292	0.00	29.767 
18:30	99.2	99.2	105.3	37	68.3	2	5	270	0.00	29.768 
18:35	99.0	99.0	105.6	38	68.9	2	5	270	0.00	29.768 
18:40	98.7	98.7	105.0	38	68.6	3	6	270	0.00	29.768 
18:45	98.7	98.7	105.0	38	68.6	1	4	292	0.00	29.768 
18:50	98.7	98.7	105.7	39	69.4	3	6	292	0.00	29.768 
18:55	98.5	98.5	104.6	38	68.4	3	7	292	0.00	29.768 
19:00	98.5	98.5	104.6	38	68.4	3	6	270	0.00	29.768 
19:05	98.5	98.5	105.3	39	69.2	2	5	270	0.00	29.768 
19:10	98.5	98.5	105.3	39	69.2	2	5	270	0.00	29.768 
19:15	98.5	98.5	104.6	38	68.4	2	4	292	0.00	29.771 
19:20	98.2	98.2	104.6	39	68.9	2	5	270	0.00	29.771 
19:25	98.0	98.0	104.9	40	69.5	2	6	270	0.00	29.771 
19:30	97.8	97.8	104.5	40	69.3	3	5	270	0.00	29.774 
19:35	97.5	97.5	105.2	42	70.5	2	4	270	0.00	29.774 
19:40	97.3	97.3	104.1	41	69.6	3	5	270	0.00	29.774 
19:45	97.3	97.3	104.1	41	69.6	2	4	270	0.00	29.778 
19:50	97.1	97.1	103.7	41	69.4	1	4	270	0.00	29.778 
19:55	96.8	96.8	103.1	41	69.2	2	5	270	0.00	29.778 
20:00	96.6	96.6	103.3	42	69.7	2	5	270	0.00	29.781 
20:05	96.3	96.3	103.4	43	70.1	2	4	270	0.00	29.781 
20:10	95.9	95.9	102.5	43	69.7	2	4	270	0.00	29.781 
20:15	95.6	95.6	102.5	44	70.2	2	4	270	0.00	29.782 
20:20	95.6	95.6	102.5	44	70.2	2	4	270	0.00	29.782 
20:25	95.4	95.4	102.7	45	70.6	1	2	270	0.00	29.782 
20:30	95.4	95.4	102.7	45	70.6	2	5	270	0.00	29.786 
20:35	95.1	95.1	102.7	46	71.0	3	5	270	0.00	29.786 
20:40	95.1	95.1	103.4	47	71.6	1	3	270	0.00	29.786 
20:45	94.7	94.7	103.8	49	72.5	1	3	270	0.00	29.790 
20:50	94.3	94.3	103.6	50	72.8	0	1	270	0.00	29.790 
20:55	94.0	94.0	102.9	50	72.5	0	2	270	0.00	29.790 
21:00	93.6	93.6	102.6	51	72.7	0	1	270	0.00	29.790 
21:05	93.4	93.4	103.5	53	73.7	0	1	270	0.00	29.790 
21:10	92.9	92.9	102.9	54	73.8	0	0	---	0.00	29.790 
21:15	92.5	92.5	102.0	54	73.4	0	0	---	0.00	29.791 
21:20	92.3	92.3	102.2	55	73.7	0	1	270	0.00	29.791 
21:25	92.1	92.1	102.3	56	74.1	0	0	---	0.00	29.791 
21:30	91.6	91.6	101.1	56	73.6	0	1	270	0.00	29.795 
21:35	91.4	91.4	101.3	57	74.0	0	0	---	0.00	29.795 
21:40	91.2	91.2	100.8	57	73.8	0	0	---	0.00	29.795 
21:45	91.0	91.0	100.3	57	73.6	0	0	---	0.00	29.795 
21:50	90.7	90.7	100.2	58	73.8	0	0	---	0.00	29.795 
21:55	90.5	90.5	99.7	58	73.7	0	0	---	0.00	29.795 
22:00	90.3	90.3	99.8	59	74.0	0	0	---	0.00	29.799 
22:05	89.9	89.9	99.4	60	74.1	0	0	---	0.00	29.799 
22:10	89.5	89.5	98.5	60	73.7	0	0	---	0.00	29.799 
22:15	89.3	89.3	98.6	61	74.0	0	0	---	0.00	29.798 
22:20	88.8	88.8	97.9	62	74.1	0	0	---	0.00	29.798 
22:25	88.6	88.6	97.5	62	73.9	0	0	---	0.00	29.798 
22:30	88.6	88.6	97.5	62	73.9	0	0	---	0.00	29.798 
22:35	88.4	88.4	96.5	61	73.2	0	1	270	0.00	29.798 
22:40	88.6	88.6	97.0	61	73.4	0	0	---	0.00	29.798 
22:45	88.6	88.6	97.0	61	73.4	0	1	270	0.00	29.806 
22:50	88.6	88.6	97.0	61	73.4	0	1	270	0.00	29.806 
22:55	88.8	88.8	96.9	60	73.1	0	1	270	0.00	29.806 
23:00	89.0	89.0	97.4	60	73.3	0	0	---	0.00	29.810 
23:05	88.8	88.8	96.9	60	73.1	0	1	270	0.00	29.810 
23:10	88.8	88.8	96.9	60	73.1	0	1	270	0.00	29.810 
23:15	88.8	88.8	96.4	59	72.6	0	2	270	0.00	29.809 
23:20	89.0	89.0	96.8	59	72.8	0	1	270	0.00	29.809 
23:25	89.0	89.0	96.8	59	72.8	0	1	270	0.00	29.809 
23:30	88.8	88.8	96.4	59	72.6	0	3	270	0.00	29.809 
23:35	88.8	88.8	96.4	59	72.6	1	3	270	0.00	29.809 
23:40	88.8	88.8	96.4	59	72.6	0	1	270	0.00	29.809 
23:45	88.8	88.8	96.9	60	73.1	0	2	270	0.00	29.813 
23:50	88.6	88.6	96.5	60	72.9	0	1	270	0.00	29.813 
23:55	88.4	88.4	96.0	60	72.7	0	1	270	0.00	29.813 

CoCoRaHS
IN-AL-39
A2 Web Hosting
Creative Commons License
GoDaddy
search engine by freefind advanced

loaded 2018-11-17 18:49:13 • last modified 2010-11-18 10:43:29
Privacy PolicyDisclaimer
• wx.awcolley.com is powered by PmWiki v.2002016 •
• all content (unless otherwise noted) © 2018 A W Colley